sensor_id;sensor_type;location;lat;lon;timestamp;temperature;humidity
82788;DHT22;72529;51.786;4.662;2024-03-17T00:00:02;9.50;71.03
82788;DHT22;72529;51.786;4.662;2024-03-17T00:02:28;9.50;71.12
82788;DHT22;72529;51.786;4.662;2024-03-17T00:04:53;9.54;71.13
82788;DHT22;72529;51.786;4.662;2024-03-17T00:07:19;9.54;70.89
82788;DHT22;72529;51.786;4.662;2024-03-17T00:09:44;9.54;70.55
82788;DHT22;72529;51.786;4.662;2024-03-17T00:12:10;9.50;70.70
82788;DHT22;72529;51.786;4.662;2024-03-17T00:14:37;9.50;70.79
82788;DHT22;72529;51.786;4.662;2024-03-17T00:17:02;9.48;70.98
82788;DHT22;72529;51.786;4.662;2024-03-17T00:19:28;9.50;70.69
82788;DHT22;72529;51.786;4.662;2024-03-17T00:21:54;9.50;70.87
82788;DHT22;72529;51.786;4.662;2024-03-17T00:24:19;9.45;70.90
82788;DHT22;72529;51.786;4.662;2024-03-17T00:26:46;9.44;70.97
82788;DHT22;72529;51.786;4.662;2024-03-17T00:29:12;9.45;71.01
82788;DHT22;72529;51.786;4.662;2024-03-17T00:31:37;9.48;71.13
82788;DHT22;72529;51.786;4.662;2024-03-17T00:34:03;9.51;70.70
82788;DHT22;72529;51.786;4.662;2024-03-17T00:36:29;9.57;71.16
82788;DHT22;72529;51.786;4.662;2024-03-17T00:38:55;9.57;71.10
82788;DHT22;72529;51.786;4.662;2024-03-17T00:41:20;9.61;70.95
82788;DHT22;72529;51.786;4.662;2024-03-17T00:43:47;9.63;70.87
82788;DHT22;72529;51.786;4.662;2024-03-17T00:46:12;9.67;70.87
82788;DHT22;72529;51.786;4.662;2024-03-17T00:48:37;9.72;70.59
82788;DHT22;72529;51.786;4.662;2024-03-17T00:51:03;9.72;70.69
82788;DHT22;72529;51.786;4.662;2024-03-17T00:53:29;9.74;70.72
82788;DHT22;72529;51.786;4.662;2024-03-17T00:55:55;9.71;70.82
82788;DHT22;72529;51.786;4.662;2024-03-17T00:58:23;9.74;71.00
82788;DHT22;72529;51.786;4.662;2024-03-17T01:00:49;9.78;70.85
82788;DHT22;72529;51.786;4.662;2024-03-17T01:03:16;9.74;70.73
82788;DHT22;72529;51.786;4.662;2024-03-17T01:05:42;9.78;70.73
82788;DHT22;72529;51.786;4.662;2024-03-17T01:08:10;9.71;70.42
82788;DHT22;72529;51.786;4.662;2024-03-17T01:10:40;9.58;70.90
82788;DHT22;72529;51.786;4.662;2024-03-17T01:13:07;9.52;71.08
82788;DHT22;72529;51.786;4.662;2024-03-17T01:15:34;9.47;71.57
82788;DHT22;72529;51.786;4.662;2024-03-17T01:18:00;9.48;71.54
82788;DHT22;72529;51.786;4.662;2024-03-17T01:20:26;9.40;71.78
82788;DHT22;72529;51.786;4.662;2024-03-17T01:22:52;9.41;71.87
82788;DHT22;72529;51.786;4.662;2024-03-17T01:25:17;9.37;71.89
82788;DHT22;72529;51.786;4.662;2024-03-17T01:27:43;9.37;72.45
82788;DHT22;72529;51.786;4.662;2024-03-17T01:30:11;9.30;72.46
82788;DHT22;72529;51.786;4.662;2024-03-17T01:32:36;9.32;72.47
82788;DHT22;72529;51.786;4.662;2024-03-17T01:35:02;9.30;72.24
82788;DHT22;72529;51.786;4.662;2024-03-17T01:37:28;9.24;72.75
82788;DHT22;72529;51.786;4.662;2024-03-17T01:40:00;9.24;72.70
82788;DHT22;72529;51.786;4.662;2024-03-17T01:42:26;9.26;72.86
82788;DHT22;72529;51.786;4.662;2024-03-17T01:44:51;9.28;72.85
82788;DHT22;72529;51.786;4.662;2024-03-17T01:47:18;9.26;72.62
82788;DHT22;72529;51.786;4.662;2024-03-17T01:49:49;9.30;72.74
82788;DHT22;72529;51.786;4.662;2024-03-17T01:52:16;9.27;72.92
82788;DHT22;72529;51.786;4.662;2024-03-17T01:54:43;9.31;72.70
82788;DHT22;72529;51.786;4.662;2024-03-17T01:57:09;9.28;72.63
82788;DHT22;72529;51.786;4.662;2024-03-17T01:59:35;9.27;72.82
82788;DHT22;72529;51.786;4.662;2024-03-17T02:02:02;9.28;72.80
82788;DHT22;72529;51.786;4.662;2024-03-17T02:04:28;9.26;73.02
82788;DHT22;72529;51.786;4.662;2024-03-17T02:06:53;9.37;72.90
82788;DHT22;72529;51.786;4.662;2024-03-17T02:09:18;9.40;72.75
82788;DHT22;72529;51.786;4.662;2024-03-17T02:11:44;9.41;72.67
82788;DHT22;72529;51.786;4.662;2024-03-17T02:14:10;9.41;72.83
82788;DHT22;72529;51.786;4.662;2024-03-17T02:16:36;9.44;72.76
82788;DHT22;72529;51.786;4.662;2024-03-17T02:19:01;9.41;72.88
82788;DHT22;72529;51.786;4.662;2024-03-17T02:21:27;9.37;72.70
82788;DHT22;72529;51.786;4.662;2024-03-17T02:23:55;9.42;72.91
82788;DHT22;72529;51.786;4.662;2024-03-17T02:26:22;9.35;72.94
82788;DHT22;72529;51.786;4.662;2024-03-17T02:28:48;9.35;73.00
82788;DHT22;72529;51.786;4.662;2024-03-17T02:31:16;9.41;73.31
82788;DHT22;72529;51.786;4.662;2024-03-17T02:33:42;9.41;73.03
82788;DHT22;72529;51.786;4.662;2024-03-17T02:36:10;9.45;73.00
82788;DHT22;72529;51.786;4.662;2024-03-17T02:38:40;9.48;72.66
82788;DHT22;72529;51.786;4.662;2024-03-17T02:41:26;9.47;72.99
82788;DHT22;72529;51.786;4.662;2024-03-17T02:43:51;9.48;72.76
82788;DHT22;72529;51.786;4.662;2024-03-17T02:46:18;9.52;73.02
82788;DHT22;72529;51.786;4.662;2024-03-17T02:48:47;9.48;72.79
82788;DHT22;72529;51.786;4.662;2024-03-17T02:51:15;9.47;72.80
82788;DHT22;72529;51.786;4.662;2024-03-17T02:53:45;9.48;72.36
82788;DHT22;72529;51.786;4.662;2024-03-17T02:56:12;9.41;72.62
82788;DHT22;72529;51.786;4.662;2024-03-17T02:58:38;9.52;72.48
82788;DHT22;72529;51.786;4.662;2024-03-17T03:01:05;9.47;72.48
82788;DHT22;72529;51.786;4.662;2024-03-17T03:03:34;9.44;72.67
82788;DHT22;72529;51.786;4.662;2024-03-17T03:06:00;9.45;72.40
82788;DHT22;72529;51.786;4.662;2024-03-17T03:08:32;9.44;72.74
82788;DHT22;72529;51.786;4.662;2024-03-17T03:10:59;9.48;72.63
82788;DHT22;72529;51.786;4.662;2024-03-17T03:13:24;9.54;72.30
82788;DHT22;72529;51.786;4.662;2024-03-17T03:15:51;9.47;72.19
82788;DHT22;72529;51.786;4.662;2024-03-17T03:18:16;9.51;72.39
82788;DHT22;72529;51.786;4.662;2024-03-17T03:20:42;9.52;72.12
82788;DHT22;72529;51.786;4.662;2024-03-17T03:23:08;9.51;72.16
82788;DHT22;72529;51.786;4.662;2024-03-17T03:25:34;9.42;72.02
82788;DHT22;72529;51.786;4.662;2024-03-17T03:28:00;9.40;72.41
82788;DHT22;72529;51.786;4.662;2024-03-17T03:30:25;9.34;72.62
82788;DHT22;72529;51.786;4.662;2024-03-17T03:32:51;9.34;72.71
82788;DHT22;72529;51.786;4.662;2024-03-17T03:35:17;9.30;72.68
82788;DHT22;72529;51.786;4.662;2024-03-17T03:37:43;9.27;72.65
82788;DHT22;72529;51.786;4.662;2024-03-17T03:40:09;9.26;72.77
82788;DHT22;72529;51.786;4.662;2024-03-17T03:42:44;9.28;72.81
82788;DHT22;72529;51.786;4.662;2024-03-17T03:45:10;9.21;73.00
82788;DHT22;72529;51.786;4.662;2024-03-17T03:47:42;9.23;72.74
82788;DHT22;72529;51.786;4.662;2024-03-17T03:50:09;9.14;72.90
82788;DHT22;72529;51.786;4.662;2024-03-17T03:52:36;9.30;72.58
82788;DHT22;72529;51.786;4.662;2024-03-17T03:55:01;9.26;72.72
82788;DHT22;72529;51.786;4.662;2024-03-17T03:57:27;9.16;72.95
82788;DHT22;72529;51.786;4.662;2024-03-17T03:59:55;9.08;72.92
82788;DHT22;72529;51.786;4.662;2024-03-17T04:02:21;9.13;72.94
82788;DHT22;72529;51.786;4.662;2024-03-17T04:04:46;9.13;72.89
82788;DHT22;72529;51.786;4.662;2024-03-17T04:07:13;9.17;72.97
82788;DHT22;72529;51.786;4.662;2024-03-17T04:09:38;9.14;72.93
82788;DHT22;72529;51.786;4.662;2024-03-17T04:12:04;9.13;72.95
82788;DHT22;72529;51.786;4.662;2024-03-17T04:14:29;9.18;73.13
82788;DHT22;72529;51.786;4.662;2024-03-17T04:16:56;9.20;72.96
82788;DHT22;72529;51.786;4.662;2024-03-17T04:19:22;9.27;72.85
82788;DHT22;72529;51.786;4.662;2024-03-17T04:21:47;9.24;72.72
82788;DHT22;72529;51.786;4.662;2024-03-17T04:24:13;9.23;72.86
82788;DHT22;72529;51.786;4.662;2024-03-17T04:26:38;9.27;72.91
82788;DHT22;72529;51.786;4.662;2024-03-17T04:29:04;9.26;72.79
82788;DHT22;72529;51.786;4.662;2024-03-17T04:31:31;9.27;72.87
82788;DHT22;72529;51.786;4.662;2024-03-17T04:33:56;9.35;72.47
82788;DHT22;72529;51.786;4.662;2024-03-17T04:36:22;9.34;72.40
82788;DHT22;72529;51.786;4.662;2024-03-17T04:38:47;9.40;72.17
82788;DHT22;72529;51.786;4.662;2024-03-17T04:41:16;9.28;72.12
82788;DHT22;72529;51.786;4.662;2024-03-17T04:43:42;9.26;72.25
82788;DHT22;72529;51.786;4.662;2024-03-17T04:46:07;9.26;72.67
82788;DHT22;72529;51.786;4.662;2024-03-17T04:48:37;9.27;72.67
82788;DHT22;72529;51.786;4.662;2024-03-17T04:51:03;9.24;72.47
82788;DHT22;72529;51.786;4.662;2024-03-17T04:53:28;9.23;72.48
82788;DHT22;72529;51.786;4.662;2024-03-17T04:55:59;9.20;72.81
82788;DHT22;72529;51.786;4.662;2024-03-17T04:58:25;9.24;72.75
82788;DHT22;72529;51.786;4.662;2024-03-17T05:00:50;9.26;72.81
82788;DHT22;72529;51.786;4.662;2024-03-17T05:03:15;9.27;72.77
82788;DHT22;72529;51.786;4.662;2024-03-17T05:05:41;9.21;72.86
82788;DHT22;72529;51.786;4.662;2024-03-17T05:08:06;9.20;72.98
82788;DHT22;72529;51.786;4.662;2024-03-17T05:10:32;9.16;73.02
82788;DHT22;72529;51.786;4.662;2024-03-17T05:12:57;9.10;73.39
82788;DHT22;72529;51.786;4.662;2024-03-17T05:15:23;9.08;73.43
82788;DHT22;72529;51.786;4.662;2024-03-17T05:17:48;9.16;73.41
82788;DHT22;72529;51.786;4.662;2024-03-17T05:20:14;9.08;73.20
82788;DHT22;72529;51.786;4.662;2024-03-17T05:22:39;9.11;73.53
82788;DHT22;72529;51.786;4.662;2024-03-17T05:25:05;9.10;73.33
82788;DHT22;72529;51.786;4.662;2024-03-17T05:27:30;9.08;73.45
82788;DHT22;72529;51.786;4.662;2024-03-17T05:29:56;9.06;73.67
82788;DHT22;72529;51.786;4.662;2024-03-17T05:32:21;8.99;73.48
82788;DHT22;72529;51.786;4.662;2024-03-17T05:34:47;9.00;73.86
82788;DHT22;72529;51.786;4.662;2024-03-17T05:37:12;8.97;74.08
82788;DHT22;72529;51.786;4.662;2024-03-17T05:39:37;9.00;74.25
82788;DHT22;72529;51.786;4.662;2024-03-17T05:42:03;9.03;74.13
82788;DHT22;72529;51.786;4.662;2024-03-17T05:44:29;9.03;74.06
82788;DHT22;72529;51.786;4.662;2024-03-17T05:46:58;9.07;74.07
82788;DHT22;72529;51.786;4.662;2024-03-17T05:49:24;9.03;74.29
82788;DHT22;72529;51.786;4.662;2024-03-17T05:51:50;9.11;74.36
82788;DHT22;72529;51.786;4.662;2024-03-17T05:54:15;9.13;74.38
82788;DHT22;72529;51.786;4.662;2024-03-17T05:56:41;9.23;74.17
82788;DHT22;72529;51.786;4.662;2024-03-17T05:59:06;9.23;74.15
82788;DHT22;72529;51.786;4.662;2024-03-17T06:01:32;9.27;74.02
82788;DHT22;72529;51.786;4.662;2024-03-17T06:03:57;9.27;74.32
82788;DHT22;72529;51.786;4.662;2024-03-17T06:06:24;9.31;74.31
82788;DHT22;72529;51.786;4.662;2024-03-17T06:08:50;9.40;74.23
82788;DHT22;72529;51.786;4.662;2024-03-17T06:11:16;9.45;73.75
82788;DHT22;72529;51.786;4.662;2024-03-17T06:13:41;9.48;73.73
82788;DHT22;72529;51.786;4.662;2024-03-17T06:16:07;9.50;73.73
82788;DHT22;72529;51.786;4.662;2024-03-17T06:18:32;9.50;73.71
82788;DHT22;72529;51.786;4.662;2024-03-17T06:20:58;9.52;73.67
82788;DHT22;72529;51.786;4.662;2024-03-17T06:23:24;9.63;73.10
82788;DHT22;72529;51.786;4.662;2024-03-17T06:25:52;9.65;72.76
82788;DHT22;72529;51.786;4.662;2024-03-17T06:28:19;9.63;73.36
82788;DHT22;72529;51.786;4.662;2024-03-17T06:30:53;9.65;73.30
82788;DHT22;72529;51.786;4.662;2024-03-17T06:33:19;9.77;72.91
82788;DHT22;72529;51.786;4.662;2024-03-17T06:35:45;9.82;73.03
82788;DHT22;72529;51.786;4.662;2024-03-17T06:38:13;9.78;73.19
82788;DHT22;72529;51.786;4.662;2024-03-17T06:40:39;9.89;72.75
82788;DHT22;72529;51.786;4.662;2024-03-17T06:43:05;9.93;72.56
82788;DHT22;72529;51.786;4.662;2024-03-17T06:45:31;9.96;72.61
82788;DHT22;72529;51.786;4.662;2024-03-17T06:47:57;9.96;72.55
82788;DHT22;72529;51.786;4.662;2024-03-17T06:50:22;9.98;72.95
82788;DHT22;72529;51.786;4.662;2024-03-17T06:52:48;10.02;72.85
82788;DHT22;72529;51.786;4.662;2024-03-17T06:55:13;10.02;72.58
82788;DHT22;72529;51.786;4.662;2024-03-17T06:57:42;10.13;72.27
82788;DHT22;72529;51.786;4.662;2024-03-17T07:00:12;10.22;72.25
82788;DHT22;72529;51.786;4.662;2024-03-17T07:02:43;10.17;72.52
82788;DHT22;72529;51.786;4.662;2024-03-17T07:05:13;10.23;72.43
82788;DHT22;72529;51.786;4.662;2024-03-17T07:07:43;10.26;72.45
82788;DHT22;72529;51.786;4.662;2024-03-17T07:10:09;10.39;72.37
82788;DHT22;72529;51.786;4.662;2024-03-17T07:12:37;10.35;72.61
82788;DHT22;72529;51.786;4.662;2024-03-17T07:15:02;10.45;71.98
82788;DHT22;72529;51.786;4.662;2024-03-17T07:17:28;10.47;71.99
82788;DHT22;72529;51.786;4.662;2024-03-17T07:19:53;10.52;71.85
82788;DHT22;72529;51.786;4.662;2024-03-17T07:22:19;10.49;72.27
82788;DHT22;72529;51.786;4.662;2024-03-17T07:24:44;10.45;73.00
82788;DHT22;72529;51.786;4.662;2024-03-17T07:27:10;10.50;72.91
82788;DHT22;72529;51.786;4.662;2024-03-17T07:29:39;10.56;72.99
82788;DHT22;72529;51.786;4.662;2024-03-17T07:32:05;10.61;72.25
82788;DHT22;72529;51.786;4.662;2024-03-17T07:34:31;10.66;72.29
82788;DHT22;72529;51.786;4.662;2024-03-17T07:36:56;10.67;72.20
82788;DHT22;72529;51.786;4.662;2024-03-17T07:39:22;10.64;72.19
82788;DHT22;72529;51.786;4.662;2024-03-17T07:41:47;10.67;72.23
82788;DHT22;72529;51.786;4.662;2024-03-17T07:44:13;10.77;71.97
82788;DHT22;72529;51.786;4.662;2024-03-17T07:46:38;10.68;72.33
82788;DHT22;72529;51.786;4.662;2024-03-17T07:49:03;10.64;72.44
82788;DHT22;72529;51.786;4.662;2024-03-17T07:51:29;10.68;72.60
82788;DHT22;72529;51.786;4.662;2024-03-17T07:53:54;10.71;72.60
82788;DHT22;72529;51.786;4.662;2024-03-17T07:56:20;10.76;72.49
82788;DHT22;72529;51.786;4.662;2024-03-17T07:58:45;10.78;72.68
82788;DHT22;72529;51.786;4.662;2024-03-17T08:01:15;10.84;72.23
82788;DHT22;72529;51.786;4.662;2024-03-17T08:03:44;11.01;71.75
82788;DHT22;72529;51.786;4.662;2024-03-17T08:06:10;10.97;72.10
82788;DHT22;72529;51.786;4.662;2024-03-17T08:08:39;11.00;71.87
82788;DHT22;72529;51.786;4.662;2024-03-17T08:11:04;10.97;71.93
82788;DHT22;72529;51.786;4.662;2024-03-17T08:13:31;11.10;72.00
82788;DHT22;72529;51.786;4.662;2024-03-17T08:16:03;11.10;71.44
82788;DHT22;72529;51.786;4.662;2024-03-17T08:18:29;11.06;71.89
82788;DHT22;72529;51.786;4.662;2024-03-17T08:20:55;11.11;71.89
82788;DHT22;72529;51.786;4.662;2024-03-17T08:23:22;11.15;72.02
82788;DHT22;72529;51.786;4.662;2024-03-17T08:25:56;11.15;71.92
82788;DHT22;72529;51.786;4.662;2024-03-17T08:28:23;11.24;71.82
82788;DHT22;72529;51.786;4.662;2024-03-17T08:31:00;11.31;71.83
82788;DHT22;72529;51.786;4.662;2024-03-17T08:33:26;11.29;71.39
82788;DHT22;72529;51.786;4.662;2024-03-17T08:36:12;11.35;71.51
82788;DHT22;72529;51.786;4.662;2024-03-17T08:38:41;11.27;71.99
82788;DHT22;72529;51.786;4.662;2024-03-17T08:41:09;11.28;72.32
82788;DHT22;72529;51.786;4.662;2024-03-17T08:43:36;11.43;71.83
82788;DHT22;72529;51.786;4.662;2024-03-17T08:46:07;11.52;71.87
82788;DHT22;72529;51.786;4.662;2024-03-17T08:48:40;11.59;71.21
82788;DHT22;72529;51.786;4.662;2024-03-17T08:51:08;11.68;70.90
82788;DHT22;72529;51.786;4.662;2024-03-17T08:53:34;11.75;71.02
82788;DHT22;72529;51.786;4.662;2024-03-17T08:56:02;11.85;71.09
82788;DHT22;72529;51.786;4.662;2024-03-17T08:58:28;11.85;70.69
82788;DHT22;72529;51.786;4.662;2024-03-17T09:00:53;11.87;71.40
82788;DHT22;72529;51.786;4.662;2024-03-17T09:03:19;11.97;70.49
82788;DHT22;72529;51.786;4.662;2024-03-17T09:05:47;12.10;70.69
82788;DHT22;72529;51.786;4.662;2024-03-17T09:08:23;12.29;69.94
82788;DHT22;72529;51.786;4.662;2024-03-17T09:10:53;12.44;70.18
82788;DHT22;72529;51.786;4.662;2024-03-17T09:13:24;12.57;69.00
82788;DHT22;72529;51.786;4.662;2024-03-17T09:15:58;12.57;68.98
82788;DHT22;72529;51.786;4.662;2024-03-17T09:18:25;12.74;68.72
82788;DHT22;72529;51.786;4.662;2024-03-17T09:21:00;12.78;68.10
82788;DHT22;72529;51.786;4.662;2024-03-17T09:23:27;12.84;68.21
82788;DHT22;72529;51.786;4.662;2024-03-17T09:28:27;12.84;68.80
82788;DHT22;72529;51.786;4.662;2024-03-17T09:30:53;12.97;68.60
82788;DHT22;72529;51.786;4.662;2024-03-17T09:33:20;13.09;68.55
82788;DHT22;72529;51.786;4.662;2024-03-17T09:38:24;13.22;68.41
82788;DHT22;72529;51.786;4.662;2024-03-17T09:40:50;13.34;68.70
82788;DHT22;72529;51.786;4.662;2024-03-17T09:43:21;13.36;68.08
82788;DHT22;72529;51.786;4.662;2024-03-17T09:45:48;13.45;67.57
82788;DHT22;72529;51.786;4.662;2024-03-17T09:48:16;13.38;67.68
82788;DHT22;72529;51.786;4.662;2024-03-17T09:50:51;13.29;68.21
82788;DHT22;72529;51.786;4.662;2024-03-17T09:53:30;13.22;68.33
82788;DHT22;72529;51.786;4.662;2024-03-17T09:56:19;13.28;68.35
82788;DHT22;72529;51.786;4.662;2024-03-17T09:58:50;13.28;68.89
82788;DHT22;72529;51.786;4.662;2024-03-17T10:01:17;13.36;68.68
82788;DHT22;72529;51.786;4.662;2024-03-17T10:06:30;13.50;68.50
82788;DHT22;72529;51.786;4.662;2024-03-17T10:09:00;13.63;67.61
82788;DHT22;72529;51.786;4.662;2024-03-17T10:11:41;13.62;67.66
82788;DHT22;72529;51.786;4.662;2024-03-17T10:14:08;13.60;68.38
82788;DHT22;72529;51.786;4.662;2024-03-17T10:16:36;13.53;68.79
82788;DHT22;72529;51.786;4.662;2024-03-17T10:19:14;13.66;68.66
82788;DHT22;72529;51.786;4.662;2024-03-17T10:21:42;13.86;68.47
82788;DHT22;72529;51.786;4.662;2024-03-17T10:24:23;13.97;68.54
82788;DHT22;72529;51.786;4.662;2024-03-17T10:26:57;14.09;68.42
82788;DHT22;72529;51.786;4.662;2024-03-17T10:31:50;14.04;67.94
82788;DHT22;72529;51.786;4.662;2024-03-17T10:34:17;14.13;68.42
82788;DHT22;72529;51.786;4.662;2024-03-17T10:36:50;14.23;69.21
82788;DHT22;72529;51.786;4.662;2024-03-17T10:39:27;14.44;68.03
82788;DHT22;72529;51.786;4.662;2024-03-17T10:42:00;14.51;67.80
82788;DHT22;72529;51.786;4.662;2024-03-17T10:44:28;14.49;67.31
82788;DHT22;72529;51.786;4.662;2024-03-17T10:46:58;14.48;67.80
82788;DHT22;72529;51.786;4.662;2024-03-17T10:49:34;14.51;67.97
82788;DHT22;72529;51.786;4.662;2024-03-17T10:52:02;14.55;67.19
82788;DHT22;72529;51.786;4.662;2024-03-17T10:54:28;14.58;67.64
82788;DHT22;72529;51.786;4.662;2024-03-17T11:00:03;14.30;68.82
82788;DHT22;72529;51.786;4.662;2024-03-17T11:02:31;14.28;69.05
82788;DHT22;72529;51.786;4.662;2024-03-17T11:05:14;14.40;68.43
82788;DHT22;72529;51.786;4.662;2024-03-17T11:07:41;14.37;68.45
82788;DHT22;72529;51.786;4.662;2024-03-17T11:10:26;14.42;68.45
82788;DHT22;72529;51.786;4.662;2024-03-17T11:12:57;14.42;68.87
82788;DHT22;72529;51.786;4.662;2024-03-17T11:17:52;14.37;69.37
82788;DHT22;72529;51.786;4.662;2024-03-17T11:22:51;14.40;69.95
82788;DHT22;72529;51.786;4.662;2024-03-17T11:28:03;14.35;71.16
82788;DHT22;72529;51.786;4.662;2024-03-17T11:39:00;14.60;70.03
82788;DHT22;72529;51.786;4.662;2024-03-17T11:44:24;14.72;70.02
82788;DHT22;72529;51.786;4.662;2024-03-17T11:46:59;14.79;69.72
82788;DHT22;72529;51.786;4.662;2024-03-17T11:52:09;15.22;69.14
82788;DHT22;72529;51.786;4.662;2024-03-17T11:54:39;15.42;68.75
82788;DHT22;72529;51.786;4.662;2024-03-17T12:00:02;16.00;67.02
82788;DHT22;72529;51.786;4.662;2024-03-17T12:02:31;16.05;67.36
82788;DHT22;72529;51.786;4.662;2024-03-17T12:05:00;16.21;67.20
82788;DHT22;72529;51.786;4.662;2024-03-17T12:07:26;16.38;66.44
82788;DHT22;72529;51.786;4.662;2024-03-17T12:09:54;16.54;66.01
82788;DHT22;72529;51.786;4.662;2024-03-17T12:12:21;16.47;66.64
82788;DHT22;72529;51.786;4.662;2024-03-17T12:14:48;16.47;65.98
82788;DHT22;72529;51.786;4.662;2024-03-17T12:17:20;16.29;66.64
82788;DHT22;72529;51.786;4.662;2024-03-17T12:19:45;16.31;66.98
82788;DHT22;72529;51.786;4.662;2024-03-17T12:22:17;16.38;67.11
82788;DHT22;72529;51.786;4.662;2024-03-17T12:24:44;16.41;66.62
82788;DHT22;72529;51.786;4.662;2024-03-17T12:27:20;16.32;66.76
82788;DHT22;72529;51.786;4.662;2024-03-17T12:29:48;16.29;67.71
82788;DHT22;72529;51.786;4.662;2024-03-17T12:32:17;16.14;67.74
82788;DHT22;72529;51.786;4.662;2024-03-17T12:34:51;16.22;67.22
82788;DHT22;72529;51.786;4.662;2024-03-17T12:37:21;16.18;67.14
82788;DHT22;72529;51.786;4.662;2024-03-17T12:39:47;16.21;66.83
82788;DHT22;72529;51.786;4.662;2024-03-17T12:42:16;16.21;66.75
82788;DHT22;72529;51.786;4.662;2024-03-17T12:44:54;16.38;66.82
82788;DHT22;72529;51.786;4.662;2024-03-17T12:47:22;16.54;66.76
82788;DHT22;72529;51.786;4.662;2024-03-17T12:54:59;16.78;65.92
82788;DHT22;72529;51.786;4.662;2024-03-17T12:57:44;16.82;66.20
82788;DHT22;72529;51.786;4.662;2024-03-17T13:00:29;16.96;65.14
82788;DHT22;72529;51.786;4.662;2024-03-17T13:03:06;16.92;64.68
82788;DHT22;72529;51.786;4.662;2024-03-17T13:05:32;17.07;65.52
82788;DHT22;72529;51.786;4.662;2024-03-17T13:07:58;17.23;64.57
82788;DHT22;72529;51.786;4.662;2024-03-17T13:10:25;17.02;64.63
82788;DHT22;72529;51.786;4.662;2024-03-17T13:13:05;17.07;65.27
82788;DHT22;72529;51.786;4.662;2024-03-17T13:15:32;17.10;64.27
82788;DHT22;72529;51.786;4.662;2024-03-17T13:18:04;17.30;64.31
82788;DHT22;72529;51.786;4.662;2024-03-17T13:20:31;17.29;64.09
82788;DHT22;72529;51.786;4.662;2024-03-17T13:22:57;17.20;64.29
82788;DHT22;72529;51.786;4.662;2024-03-17T13:25:25;17.16;64.60
82788;DHT22;72529;51.786;4.662;2024-03-17T13:27:53;17.12;64.27
82788;DHT22;72529;51.786;4.662;2024-03-17T13:30:21;16.97;65.26
82788;DHT22;72529;51.786;4.662;2024-03-17T13:32:49;16.92;65.30
82788;DHT22;72529;51.786;4.662;2024-03-17T13:35:21;16.75;65.58
82788;DHT22;72529;51.786;4.662;2024-03-17T13:37:49;16.64;65.46
82788;DHT22;72529;51.786;4.662;2024-03-17T13:40:18;16.61;65.76
82788;DHT22;72529;51.786;4.662;2024-03-17T13:42:52;16.66;66.03
82788;DHT22;72529;51.786;4.662;2024-03-17T13:45:20;16.72;65.55
82788;DHT22;72529;51.786;4.662;2024-03-17T13:47:56;16.69;65.79
82788;DHT22;72529;51.786;4.662;2024-03-17T13:50:23;16.75;65.33
82788;DHT22;72529;51.786;4.662;2024-03-17T13:52:48;16.79;65.35
82788;DHT22;72529;51.786;4.662;2024-03-17T13:55:19;16.97;64.99
82788;DHT22;72529;51.786;4.662;2024-03-17T13:57:56;17.23;64.55
82788;DHT22;72529;51.786;4.662;2024-03-17T14:00:26;17.34;63.80
82788;DHT22;72529;51.786;4.662;2024-03-17T14:02:54;17.26;63.83
82788;DHT22;72529;51.786;4.662;2024-03-17T14:05:21;17.19;64.23
82788;DHT22;72529;51.786;4.662;2024-03-17T14:07:48;17.10;64.56
82788;DHT22;72529;51.786;4.662;2024-03-17T14:10:16;17.06;64.93
82788;DHT22;72529;51.786;4.662;2024-03-17T14:12:42;17.02;65.23
82788;DHT22;72529;51.786;4.662;2024-03-17T14:15:10;17.02;65.31
82788;DHT22;72529;51.786;4.662;2024-03-17T14:17:39;16.96;65.98
82788;DHT22;72529;51.786;4.662;2024-03-17T14:20:07;16.90;65.50
82788;DHT22;72529;51.786;4.662;2024-03-17T14:22:40;16.96;65.52
82788;DHT22;72529;51.786;4.662;2024-03-17T14:25:08;17.09;64.80
82788;DHT22;72529;51.786;4.662;2024-03-17T14:27:36;17.19;64.87
82788;DHT22;72529;51.786;4.662;2024-03-17T14:30:01;17.12;64.28
82788;DHT22;72529;51.786;4.662;2024-03-17T14:32:27;16.99;64.70
82788;DHT22;72529;51.786;4.662;2024-03-17T14:34:53;16.89;64.71
82788;DHT22;72529;51.786;4.662;2024-03-17T14:37:18;16.72;65.00
82788;DHT22;72529;51.786;4.662;2024-03-17T14:39:44;16.68;65.48
82788;DHT22;72529;51.786;4.662;2024-03-17T14:42:09;16.71;65.45
82788;DHT22;72529;51.786;4.662;2024-03-17T14:44:35;16.69;65.61
82788;DHT22;72529;51.786;4.662;2024-03-17T14:47:02;16.62;65.66
82788;DHT22;72529;51.786;4.662;2024-03-17T14:49:30;16.69;65.34
82788;DHT22;72529;51.786;4.662;2024-03-17T14:51:56;16.58;65.76
82788;DHT22;72529;51.786;4.662;2024-03-17T14:54:22;16.55;65.92
82788;DHT22;72529;51.786;4.662;2024-03-17T14:56:47;16.48;66.00
82788;DHT22;72529;51.786;4.662;2024-03-17T14:59:13;16.35;66.78
82788;DHT22;72529;51.786;4.662;2024-03-17T15:01:41;16.24;68.44
82788;DHT22;72529;51.786;4.662;2024-03-17T15:04:06;16.14;68.03
82788;DHT22;72529;51.786;4.662;2024-03-17T15:06:32;16.01;68.89
82788;DHT22;72529;51.786;4.662;2024-03-17T15:08:57;15.97;69.45
82788;DHT22;72529;51.786;4.662;2024-03-17T15:11:23;15.94;69.23
82788;DHT22;72529;51.786;4.662;2024-03-17T15:13:48;15.84;70.22
82788;DHT22;72529;51.786;4.662;2024-03-17T15:16:14;15.64;71.31
82788;DHT22;72529;51.786;4.662;2024-03-17T15:18:40;15.70;70.97
82788;DHT22;72529;51.786;4.662;2024-03-17T15:21:06;15.60;70.89
82788;DHT22;72529;51.786;4.662;2024-03-17T15:23:32;15.49;71.82
82788;DHT22;72529;51.786;4.662;2024-03-17T15:28:34;15.60;71.46
82788;DHT22;72529;51.786;4.662;2024-03-17T15:31:03;15.57;71.33
82788;DHT22;72529;51.786;4.662;2024-03-17T15:33:28;15.54;71.92
82788;DHT22;72529;51.786;4.662;2024-03-17T15:35:54;15.57;72.05
82788;DHT22;72529;51.786;4.662;2024-03-17T15:38:19;15.51;72.43
82788;DHT22;72529;51.786;4.662;2024-03-17T15:40:47;15.51;71.91
82788;DHT22;72529;51.786;4.662;2024-03-17T15:43:13;15.56;72.79
82788;DHT22;72529;51.786;4.662;2024-03-17T15:45:38;15.59;71.98
82788;DHT22;72529;51.786;4.662;2024-03-17T15:48:05;15.53;71.60
82788;DHT22;72529;51.786;4.662;2024-03-17T15:50:30;15.49;71.46
82788;DHT22;72529;51.786;4.662;2024-03-17T15:52:56;15.44;71.90
82788;DHT22;72529;51.786;4.662;2024-03-17T15:55:22;15.32;72.71
82788;DHT22;72529;51.786;4.662;2024-03-17T15:57:50;15.23;73.72
82788;DHT22;72529;51.786;4.662;2024-03-17T16:00:17;15.23;74.05
82788;DHT22;72529;51.786;4.662;2024-03-17T16:02:44;15.19;74.49
82788;DHT22;72529;51.786;4.662;2024-03-17T16:05:16;15.12;75.27
82788;DHT22;72529;51.786;4.662;2024-03-17T16:07:43;15.09;75.59
82788;DHT22;72529;51.786;4.662;2024-03-17T16:10:17;15.05;76.05
82788;DHT22;72529;51.786;4.662;2024-03-17T16:12:43;14.99;76.34
82788;DHT22;72529;51.786;4.662;2024-03-17T16:15:09;15.02;75.90
82788;DHT22;72529;51.786;4.662;2024-03-17T16:17:37;14.95;76.17
82788;DHT22;72529;51.786;4.662;2024-03-17T16:20:08;14.96;76.62
82788;DHT22;72529;51.786;4.662;2024-03-17T16:22:39;14.98;76.49
82788;DHT22;72529;51.786;4.662;2024-03-17T16:25:04;15.02;75.59